Terminal Aerodrome Forecast
Issued by NWS Wichita, KS

Home | Current Version | Previous Version | Graphics & Text | Print | Product List | Glossary On
Versions: 1 2 3 4 5 6 7 8 9 10 11 12 13 14 15 16 17 18 19 20 21 22 23 24 25
000
FTUS43 KICT 260520
TAFICT
TAF
KICT 260520Z 2606/2706 01024G32KT P6SM BKN020 OVC050
     FM260900 36018G25KT P6SM BKN100 BKN250
     FM262100 01013KT P6SM BKN250=

USA.gov is the U.S. government's official web portal to all federal, state and local government web resources and services.